createdAt,value
2024-02-29T00:02:12.705Z,0.93
2024-02-29T00:04:39.597Z,1.85
2024-02-29T00:07:07.086Z,1.42
2024-02-29T00:09:33.998Z,1.30
2024-02-29T00:12:00.864Z,1.50
2024-02-29T00:14:28.335Z,1.83
2024-02-29T00:16:55.293Z,1.60
2024-02-29T00:19:22.313Z,1.63
2024-02-29T00:21:49.277Z,1.80
2024-02-29T00:24:16.641Z,1.67
2024-02-29T00:26:43.488Z,1.90
2024-02-29T00:29:10.403Z,1.75
2024-02-29T00:31:37.278Z,2.10
2024-02-29T00:34:05.077Z,1.40
2024-02-29T00:36:31.971Z,1.60
2024-02-29T00:39:06.123Z,2.35
2024-02-29T00:41:38.816Z,1.60
2024-02-29T00:44:05.879Z,1.50
2024-02-29T00:46:32.736Z,1.40
2024-02-29T00:48:59.635Z,1.50
2024-02-29T00:51:26.589Z,1.52
2024-02-29T00:53:53.421Z,1.35
2024-02-29T00:56:20.349Z,1.40
2024-02-29T00:58:47.272Z,1.52
2024-02-29T01:01:14.205Z,1.33
2024-02-29T01:03:41.209Z,1.10
2024-02-29T01:06:08.593Z,1.42
2024-02-29T01:08:36.451Z,1.40
2024-02-29T01:11:06.875Z,1.52
2024-02-29T01:13:34.011Z,1.95
2024-02-29T01:16:00.926Z,1.88
2024-02-29T01:18:27.751Z,1.48
2024-02-29T01:20:54.585Z,1.75
2024-02-29T01:23:21.483Z,1.80
2024-02-29T01:25:48.273Z,2.33
2024-02-29T01:28:15.239Z,1.88
2024-02-29T01:30:42.113Z,1.67
2024-02-29T01:33:09.064Z,2.05
2024-02-29T01:35:35.927Z,1.58
2024-02-29T01:38:02.764Z,1.80
2024-02-29T01:40:29.578Z,1.67
2024-02-29T01:42:56.410Z,1.50
2024-02-29T01:45:23.266Z,1.48
2024-02-29T01:47:50.067Z,1.30
2024-02-29T01:50:18.139Z,1.45
2024-02-29T01:52:45.955Z,1.70
2024-02-29T01:55:13.521Z,1.20
2024-02-29T01:57:41.455Z,0.90
2024-02-29T02:00:10.271Z,1.00
2024-02-29T02:02:39.715Z,1.35
2024-02-29T02:05:08.301Z,1.20
2024-02-29T02:07:38.398Z,1.10
2024-02-29T02:10:09.003Z,1.10
2024-02-29T02:12:36.828Z,1.02
2024-02-29T02:15:04.610Z,1.33
2024-02-29T02:17:33.786Z,1.08
2024-02-29T02:20:01.971Z,1.33
2024-02-29T02:22:30.017Z,1.50
2024-02-29T02:24:57.665Z,1.48
2024-02-29T02:27:24.819Z,1.15
2024-02-29T02:29:51.768Z,1.10
2024-02-29T02:32:18.732Z,1.40
2024-02-29T02:34:45.639Z,1.20
2024-02-29T02:37:12.546Z,1.45
2024-02-29T02:39:39.612Z,1.30
2024-02-29T02:42:06.487Z,1.30
2024-02-29T02:44:33.433Z,1.15
2024-02-29T02:47:00.454Z,1.23
2024-02-29T02:49:27.261Z,1.27
2024-02-29T02:51:54.137Z,1.00
2024-02-29T02:54:21.002Z,1.08
2024-02-29T02:56:47.808Z,0.95
2024-02-29T02:59:14.656Z,1.05
2024-02-29T03:01:41.646Z,0.82
2024-02-29T03:04:08.586Z,0.93
2024-02-29T03:06:35.520Z,0.68
2024-02-29T03:09:02.987Z,0.80
2024-02-29T03:11:29.857Z,0.90
2024-02-29T03:13:56.919Z,0.77
2024-02-29T03:16:24.709Z,0.90
2024-02-29T03:18:51.934Z,0.80
2024-02-29T03:21:19.290Z,0.90
2024-02-29T03:23:46.289Z,1.00
2024-02-29T03:26:13.114Z,1.15
2024-02-29T03:28:40.308Z,0.80
2024-02-29T03:31:14.717Z,0.77
2024-02-29T03:33:42.592Z,0.70
2024-02-29T03:36:10.181Z,0.60
2024-02-29T03:38:38.313Z,0.57
2024-02-29T03:41:08.131Z,0.70
2024-02-29T03:43:38.430Z,0.60
2024-02-29T03:46:05.407Z,0.65
2024-02-29T03:48:32.495Z,0.73
2024-02-29T03:50:59.529Z,0.77
2024-02-29T03:53:26.313Z,0.60
2024-02-29T03:55:53.154Z,0.77
2024-02-29T03:58:20.073Z,0.90
2024-02-29T04:00:47.275Z,1.00
2024-02-29T04:03:14.153Z,1.00
2024-02-29T04:05:40.988Z,1.10
2024-02-29T04:08:12.611Z,1.00
2024-02-29T04:10:40.190Z,1.33
2024-02-29T04:13:07.259Z,1.17
2024-02-29T04:15:34.413Z,1.58
2024-02-29T04:18:01.597Z,1.17
2024-02-29T04:20:28.454Z,1.30
2024-02-29T04:22:55.603Z,1.45
2024-02-29T04:25:24.286Z,1.20
2024-02-29T04:27:52.013Z,1.27
2024-02-29T04:30:19.292Z,1.30
2024-02-29T04:32:46.567Z,1.35
2024-02-29T04:35:13.579Z,1.23
2024-02-29T04:37:40.543Z,1.50
2024-02-29T04:40:11.301Z,1.60
2024-02-29T04:42:39.912Z,1.30
2024-02-29T04:45:08.414Z,1.30
2024-02-29T04:47:36.112Z,1.00
2024-02-29T04:50:04.484Z,1.13
2024-02-29T04:52:31.412Z,1.00
2024-02-29T04:54:58.366Z,0.88
2024-02-29T04:57:25.245Z,1.25
2024-02-29T04:59:52.608Z,0.85
2024-02-29T05:02:19.386Z,0.73
2024-02-29T05:04:46.356Z,0.90
2024-02-29T05:07:13.505Z,0.80
2024-02-29T05:09:40.373Z,0.70
2024-02-29T05:12:07.592Z,0.70
2024-02-29T05:14:34.494Z,0.80
2024-02-29T05:17:01.367Z,0.50
2024-02-29T05:19:28.210Z,0.90
2024-02-29T05:21:56.570Z,0.93
2024-02-29T05:24:23.667Z,1.20
2024-02-29T05:26:50.517Z,1.20
2024-02-29T05:29:17.681Z,1.30
2024-02-29T05:31:52.823Z,1.35
2024-02-29T05:34:21.656Z,1.50
2024-02-29T05:36:49.075Z,1.85
2024-02-29T05:39:16.291Z,2.25
2024-02-29T05:41:43.062Z,1.40
2024-02-29T05:44:10.049Z,2.25
2024-02-29T05:46:37.489Z,1.95
2024-02-29T05:49:04.302Z,2.38
2024-02-29T05:51:31.143Z,0.40
2024-02-29T05:53:58.073Z,1.95
2024-02-29T05:56:26.292Z,2.05
2024-02-29T05:58:53.131Z,2.30
2024-02-29T06:01:20.392Z,2.15
2024-02-29T06:03:47.493Z,1.83
2024-02-29T06:06:16.861Z,2.60
2024-02-29T06:08:43.938Z,1.65
2024-02-29T06:11:15.043Z,2.17
2024-02-29T06:13:42.490Z,1.95
2024-02-29T06:16:12.052Z,1.83
2024-02-29T06:18:38.961Z,2.00
2024-02-29T06:21:06.160Z,3.28
2024-02-29T06:23:33.041Z,2.25
2024-02-29T06:25:59.947Z,2.25
2024-02-29T06:28:26.856Z,2.20
2024-02-29T06:30:54.866Z,2.15
2024-02-29T06:33:21.705Z,2.50
2024-02-29T06:35:48.513Z,1.90
2024-02-29T06:38:16.249Z,2.22
2024-02-29T06:40:43.229Z,1.98
2024-02-29T06:43:10.099Z,2.85
2024-02-29T06:45:37.058Z,2.47
2024-02-29T06:48:05.387Z,2.22
2024-02-29T06:50:32.253Z,1.63
2024-02-29T06:52:59.101Z,4.03
2024-02-29T06:55:25.958Z,3.30
2024-02-29T06:57:52.924Z,4.00
2024-02-29T07:00:20.209Z,3.08
2024-02-29T07:02:47.023Z,2.30
2024-02-29T07:05:13.920Z,2.83
2024-02-29T07:07:40.722Z,2.40
2024-02-29T07:10:09.172Z,2.25
2024-02-29T07:12:36.099Z,2.95
2024-02-29T07:15:03.638Z,2.53
2024-02-29T07:17:30.658Z,0.85
2024-02-29T07:19:57.569Z,3.05
2024-02-29T07:22:25.020Z,2.63
2024-02-29T07:24:51.952Z,3.50
2024-02-29T07:27:18.865Z,2.75
2024-02-29T07:29:45.650Z,2.75
2024-02-29T07:32:12.460Z,3.28
2024-02-29T07:34:39.300Z,2.60
2024-02-29T07:37:06.309Z,2.97
2024-02-29T07:39:33.245Z,3.10
2024-02-29T07:42:00.084Z,3.00
2024-02-29T07:44:26.966Z,3.28
2024-02-29T07:46:54.046Z,2.85
2024-02-29T07:49:20.978Z,3.17
2024-02-29T07:51:47.909Z,3.05
2024-02-29T07:54:14.726Z,3.58
2024-02-29T07:56:42.497Z,2.88
2024-02-29T07:59:09.345Z,2.72
2024-02-29T08:01:36.687Z,3.03
2024-02-29T08:04:03.880Z,2.30
2024-02-29T08:06:30.825Z,2.83
2024-02-29T08:08:57.663Z,3.58
2024-02-29T08:11:27.196Z,3.30
2024-02-29T08:13:54.692Z,2.92
2024-02-29T08:16:21.632Z,2.45
2024-02-29T08:18:48.771Z,2.72
2024-02-29T08:21:15.900Z,3.22
2024-02-29T08:23:42.671Z,2.83
2024-02-29T08:26:10.384Z,3.45
2024-02-29T08:28:38.445Z,7.82
2024-02-29T08:31:07.129Z,4.35
2024-02-29T08:33:33.996Z,3.17
2024-02-29T08:36:01.131Z,2.92
2024-02-29T08:38:28.395Z,2.83
2024-02-29T08:40:55.311Z,3.53
2024-02-29T08:43:22.846Z,2.95
2024-02-29T08:45:51.263Z,2.60
2024-02-29T08:48:18.169Z,2.90
2024-02-29T08:50:44.980Z,2.70
2024-02-29T08:53:12.153Z,3.08
2024-02-29T08:55:39.016Z,3.33
2024-02-29T08:58:06.393Z,3.42
2024-02-29T09:00:33.314Z,3.55
2024-02-29T09:03:00.208Z,3.38
2024-02-29T09:05:27.051Z,3.53
2024-02-29T09:07:54.368Z,4.18
2024-02-29T09:10:23.151Z,3.42
2024-02-29T09:12:50.105Z,3.53
2024-02-29T09:15:17.149Z,3.63
2024-02-29T09:17:44.279Z,4.30
2024-02-29T09:20:12.106Z,3.53
2024-02-29T09:22:39.018Z,4.07
2024-02-29T09:25:08.049Z,3.95
2024-02-29T09:27:35.073Z,5.10
2024-02-29T09:30:01.986Z,3.67
2024-02-29T09:32:28.872Z,3.53
2024-02-29T09:34:55.693Z,4.28
2024-02-29T09:37:23.034Z,3.28
2024-02-29T09:39:50.007Z,3.42
2024-02-29T09:42:17.242Z,3.30
2024-02-29T09:44:44.750Z,3.15
2024-02-29T09:47:13.856Z,4.35
2024-02-29T09:49:41.970Z,3.83
2024-02-29T09:52:09.607Z,3.63
2024-02-29T09:54:39.650Z,3.67
2024-02-29T09:57:12.547Z,3.10
2024-02-29T09:59:42.877Z,3.40
2024-02-29T10:02:15.613Z,3.22
2024-02-29T10:04:42.838Z,0.75
2024-02-29T10:07:11.026Z,3.80
2024-02-29T10:09:38.329Z,4.60
2024-02-29T10:12:05.629Z,4.00
2024-02-29T10:14:32.538Z,3.85
2024-02-29T10:16:59.868Z,3.60
2024-02-29T10:19:26.822Z,3.65
2024-02-29T10:21:53.994Z,4.80
2024-02-29T10:24:23.060Z,3.78
2024-02-29T10:26:51.037Z,5.13
2024-02-29T10:29:23.191Z,5.13
2024-02-29T10:31:50.738Z,3.70
2024-02-29T10:34:20.466Z,3.33
2024-02-29T10:36:47.776Z,4.53
2024-02-29T10:39:14.758Z,4.57
2024-02-29T10:41:49.136Z,3.42
2024-02-29T10:44:20.384Z,3.75
2024-02-29T10:46:50.693Z,4.15
2024-02-29T10:49:30.612Z,2.88
2024-02-29T10:52:10.895Z,3.00
2024-02-29T10:54:46.181Z,2.97
2024-02-29T10:57:23.228Z,3.50
2024-02-29T11:00:06.334Z,2.55
2024-02-29T11:02:33.780Z,2.95
2024-02-29T11:05:01.915Z,2.20
2024-02-29T11:07:30.048Z,3.08
2024-02-29T11:09:57.635Z,3.42
2024-02-29T11:12:28.303Z,3.15
2024-02-29T11:14:59.080Z,3.22
2024-02-29T11:17:34.626Z,2.50
2024-02-29T11:20:08.505Z,3.22
2024-02-29T11:22:36.335Z,3.10
2024-02-29T11:25:12.234Z,3.72
2024-02-29T11:27:51.964Z,3.22
2024-02-29T11:30:22.626Z,3.67
2024-02-29T11:32:50.042Z,3.58
2024-02-29T11:35:17.245Z,2.72
2024-02-29T11:37:45.758Z,3.67
2024-02-29T11:40:20.186Z,2.60
2024-02-29T11:42:47.263Z,3.08
2024-02-29T11:45:23.421Z,2.90
2024-02-29T11:47:50.725Z,3.03
2024-02-29T11:50:18.582Z,2.65
2024-02-29T11:52:46.055Z,3.03
2024-02-29T11:55:13.572Z,2.67
2024-02-29T11:57:42.507Z,3.17
2024-02-29T12:00:09.951Z,3.13
2024-02-29T12:02:38.488Z,3.13
2024-02-29T12:05:06.658Z,3.15
2024-02-29T12:07:33.927Z,2.78
2024-02-29T12:10:02.644Z,4.03
2024-02-29T12:12:30.408Z,3.20
2024-02-29T12:14:58.494Z,2.75
2024-02-29T12:17:28.381Z,2.90
2024-02-29T12:19:56.415Z,3.78
2024-02-29T12:22:23.412Z,3.03
2024-02-29T12:24:50.389Z,3.75
2024-02-29T12:27:17.330Z,3.25
2024-02-29T12:29:45.068Z,2.95
2024-02-29T12:32:12.695Z,3.30
2024-02-29T12:34:41.616Z,3.47
2024-02-29T12:37:13.097Z,3.70
2024-02-29T12:39:40.935Z,3.15
2024-02-29T12:42:08.299Z,3.15
2024-02-29T12:44:35.175Z,2.72
2024-02-29T12:47:01.999Z,2.83
2024-02-29T12:49:29.451Z,2.25
2024-02-29T12:51:56.604Z,2.75
2024-02-29T12:54:24.155Z,3.53
2024-02-29T12:56:51.081Z,3.70
2024-02-29T12:59:18.983Z,2.85
2024-02-29T13:01:46.118Z,3.28
2024-02-29T13:04:13.319Z,2.65
2024-02-29T13:06:40.419Z,2.47
2024-02-29T13:09:07.576Z,2.63
2024-02-29T13:11:35.543Z,3.13
2024-02-29T13:14:02.539Z,3.05
2024-02-29T13:16:29.680Z,2.60
2024-02-29T13:18:56.600Z,2.40
2024-02-29T13:21:23.859Z,2.70
2024-02-29T13:23:50.707Z,2.65
2024-02-29T13:26:17.519Z,2.97
2024-02-29T13:28:45.029Z,2.55
2024-02-29T13:31:11.909Z,2.45
2024-02-29T13:33:38.807Z,2.78
2024-02-29T13:36:06.255Z,2.70
2024-02-29T13:38:33.268Z,2.88
2024-02-29T13:41:00.126Z,3.17
2024-02-29T13:43:27.094Z,2.88
2024-02-29T13:45:54.083Z,2.40
2024-02-29T13:48:20.910Z,2.78
2024-02-29T13:50:47.703Z,2.65
2024-02-29T13:53:14.662Z,2.53
2024-02-29T13:55:45.711Z,2.67
2024-02-29T13:58:14.613Z,2.97
2024-02-29T14:00:41.943Z,3.22
2024-02-29T14:03:08.797Z,2.20
2024-02-29T14:05:35.695Z,2.88
2024-02-29T14:08:02.734Z,2.40
2024-02-29T14:10:29.622Z,3.30
2024-02-29T14:12:56.811Z,2.83
2024-02-29T14:15:23.730Z,2.40
2024-02-29T14:17:51.884Z,2.45
2024-02-29T14:20:19.108Z,2.65
2024-02-29T14:22:45.995Z,3.15
2024-02-29T14:25:12.904Z,2.28
2024-02-29T14:27:39.912Z,2.88
2024-02-29T14:30:10.224Z,2.70
2024-02-29T14:32:38.549Z,3.25
2024-02-29T14:35:06.018Z,2.72
2024-02-29T14:37:34.044Z,2.47
2024-02-29T14:40:01.525Z,2.63
2024-02-29T14:42:28.794Z,3.55
2024-02-29T14:44:58.008Z,2.28
2024-02-29T14:47:27.029Z,2.03
2024-02-29T14:49:55.024Z,2.42
2024-02-29T14:52:21.978Z,2.58
2024-02-29T14:54:49.600Z,2.60
2024-02-29T14:57:17.416Z,2.67
2024-02-29T14:59:44.655Z,2.13
2024-02-29T15:02:12.595Z,2.50
2024-02-29T15:04:39.459Z,2.55
2024-02-29T15:07:06.834Z,2.60
2024-02-29T15:09:33.909Z,2.83
2024-02-29T15:12:00.950Z,2.10
2024-02-29T15:14:27.852Z,3.08
2024-02-29T15:16:55.289Z,2.33
2024-02-29T15:19:25.504Z,2.72
2024-02-29T15:21:52.773Z,3.33
2024-02-29T15:24:21.720Z,3.40
2024-02-29T15:26:49.264Z,2.40
2024-02-29T15:29:16.214Z,2.65
2024-02-29T15:31:45.467Z,3.15
2024-02-29T15:34:14.791Z,2.40
2024-02-29T15:36:42.046Z,2.80
2024-02-29T15:39:08.890Z,2.92
2024-02-29T15:41:36.246Z,3.20
2024-02-29T15:44:03.129Z,2.75
2024-02-29T15:46:30.277Z,3.15
2024-02-29T15:48:57.306Z,2.75
2024-02-29T15:51:25.272Z,2.80
2024-02-29T15:53:52.111Z,3.60
2024-02-29T15:56:19.514Z,2.90
2024-02-29T15:58:46.392Z,2.78
2024-02-29T16:01:13.427Z,3.60
2024-02-29T16:03:40.507Z,3.08
2024-02-29T16:06:07.368Z,3.45
2024-02-29T16:08:34.229Z,3.15
2024-02-29T16:11:01.168Z,3.28
2024-02-29T16:13:28.300Z,3.00
2024-02-29T16:15:56.383Z,3.95
2024-02-29T16:18:23.692Z,2.63
2024-02-29T16:20:52.616Z,3.42
2024-02-29T16:23:20.239Z,3.20
2024-02-29T16:25:47.261Z,3.10
2024-02-29T16:28:14.379Z,2.85
2024-02-29T16:30:41.273Z,3.00
2024-02-29T16:33:08.182Z,3.10
2024-02-29T16:35:35.090Z,3.80
2024-02-29T16:38:03.488Z,3.58
2024-02-29T16:40:31.420Z,3.35
2024-02-29T16:42:58.423Z,3.00
2024-02-29T16:45:25.249Z,3.60
2024-02-29T16:47:52.504Z,2.80
2024-02-29T16:50:19.575Z,3.65
2024-02-29T16:52:46.420Z,3.88
2024-02-29T16:55:13.717Z,3.30
2024-02-29T16:57:40.706Z,3.55
2024-02-29T17:00:10.137Z,4.03
2024-02-29T17:02:37.032Z,4.03
2024-02-29T17:05:04.158Z,3.53
2024-02-29T17:07:31.876Z,4.15
2024-02-29T17:10:00.615Z,3.28
2024-02-29T17:12:28.261Z,3.60
2024-02-29T17:14:55.470Z,3.67
2024-02-29T17:17:22.443Z,3.17
2024-02-29T17:19:49.384Z,3.22
2024-02-29T17:22:16.358Z,4.22
2024-02-29T17:24:45.075Z,4.60
2024-02-29T17:27:11.971Z,3.92
2024-02-29T17:29:38.840Z,3.53
2024-02-29T17:32:05.995Z,3.33
2024-02-29T17:34:32.880Z,3.80
2024-02-29T17:36:59.736Z,4.32
2024-02-29T17:39:26.635Z,3.80
2024-02-29T17:41:53.479Z,3.53
2024-02-29T17:44:23.383Z,4.18
2024-02-29T17:46:50.231Z,4.13
2024-02-29T17:49:17.549Z,3.60
2024-02-29T17:51:47.817Z,4.28
2024-02-29T17:54:14.793Z,5.05
2024-02-29T17:56:42.713Z,3.15
2024-02-29T17:59:11.150Z,5.10
2024-02-29T18:01:38.488Z,4.68
2024-02-29T18:04:06.060Z,4.70
2024-02-29T18:06:33.102Z,4.88
2024-02-29T18:08:59.900Z,5.47
2024-02-29T18:11:26.763Z,4.95
2024-02-29T18:13:53.601Z,3.75
2024-02-29T18:16:20.446Z,3.58
2024-02-29T18:18:48.810Z,3.28
2024-02-29T18:21:15.696Z,1.35
2024-02-29T18:23:42.591Z,4.05
2024-02-29T18:26:09.448Z,4.18
2024-02-29T18:28:36.250Z,1.38
2024-02-29T18:31:04.387Z,0.63
2024-02-29T18:33:31.233Z,3.70
2024-02-29T18:35:58.366Z,3.72
2024-02-29T18:38:27.288Z,3.63
2024-02-29T18:40:54.096Z,3.60
2024-02-29T18:43:21.079Z,4.18
2024-02-29T18:45:57.060Z,4.32
2024-02-29T18:48:29.710Z,3.13
2024-02-29T18:50:56.517Z,3.75
2024-02-29T18:53:23.333Z,4.07
2024-02-29T18:55:51.167Z,5.88
2024-02-29T18:58:18.348Z,6.00
2024-02-29T19:00:45.414Z,1.17
2024-02-29T19:03:12.262Z,3.83
2024-02-29T19:05:39.047Z,2.50
2024-02-29T19:08:06.405Z,3.45
2024-02-29T19:10:34.304Z,3.40
2024-02-29T19:13:01.191Z,3.15
2024-02-29T19:15:27.974Z,3.38
2024-02-29T19:17:55.024Z,2.90
2024-02-29T19:20:21.880Z,3.92
2024-02-29T19:22:48.698Z,3.28
2024-02-29T19:25:15.583Z,4.10
2024-02-29T19:27:42.525Z,3.00
2024-02-29T19:30:12.069Z,2.92
2024-02-29T19:32:39.009Z,3.28
2024-02-29T19:35:06.710Z,3.70
2024-02-29T19:37:33.708Z,3.33
2024-02-29T19:40:00.608Z,3.53
2024-02-29T19:42:27.521Z,4.90
2024-02-29T19:44:59.222Z,3.83
2024-02-29T19:47:26.555Z,4.10
2024-02-29T19:49:53.408Z,4.47
2024-02-29T19:52:20.367Z,4.07
2024-02-29T19:54:48.367Z,2.60
2024-02-29T19:57:15.597Z,0.65
2024-02-29T19:59:42.544Z,0.77
2024-02-29T20:02:09.923Z,3.97
2024-02-29T20:04:37.169Z,3.92
2024-02-29T20:07:04.807Z,4.10
2024-02-29T20:09:31.948Z,3.97
2024-02-29T20:11:58.856Z,4.15
2024-02-29T20:14:25.714Z,3.55
2024-02-29T20:16:52.654Z,3.70
2024-02-29T20:19:19.573Z,2.90
2024-02-29T20:21:48.192Z,2.80
2024-02-29T20:24:15.668Z,0.82
2024-02-29T20:26:44.818Z,2.53
2024-02-29T20:29:11.804Z,2.72
2024-02-29T20:31:38.639Z,2.33
2024-02-29T20:34:05.453Z,2.15
2024-02-29T20:36:32.322Z,0.40
2024-02-29T20:38:59.463Z,3.15
2024-02-29T20:41:26.291Z,0.38
2024-02-29T20:43:53.165Z,2.45
2024-02-29T20:46:20.514Z,1.23
2024-02-29T20:48:48.263Z,3.20
2024-02-29T20:51:15.269Z,3.10
2024-02-29T20:53:42.236Z,3.35
2024-02-29T20:56:09.161Z,0.75
2024-02-29T20:58:37.105Z,3.05
2024-02-29T21:01:04.421Z,0.40
2024-02-29T21:03:31.434Z,1.38
2024-02-29T21:06:00.309Z,0.55
2024-02-29T21:08:33.315Z,1.00
2024-02-29T21:11:01.927Z,0.90
2024-02-29T21:13:34.603Z,0.45
2024-02-29T21:16:01.688Z,0.60
2024-02-29T21:18:28.726Z,0.63
2024-02-29T21:20:55.806Z,0.77
2024-02-29T21:23:23.292Z,0.40
2024-02-29T21:25:50.126Z,0.40
2024-02-29T21:28:17.055Z,0.30
2024-02-29T21:30:43.921Z,2.33
2024-02-29T21:33:11.224Z,0.45
2024-02-29T21:35:38.518Z,1.15
2024-02-29T21:38:05.480Z,0.50
2024-02-29T21:40:32.461Z,0.43
2024-02-29T21:43:00.715Z,1.13
2024-02-29T21:45:27.623Z,0.93
2024-02-29T21:47:54.460Z,1.08
2024-02-29T21:50:22.976Z,0.82
2024-02-29T21:52:50.081Z,1.50
2024-02-29T21:55:17.101Z,0.93
2024-02-29T21:57:44.418Z,0.80
2024-02-29T22:00:13.991Z,2.47
2024-02-29T22:02:43.976Z,0.50
2024-02-29T22:05:11.767Z,0.52
2024-02-29T22:07:38.861Z,1.23
2024-02-29T22:10:06.069Z,0.30
2024-02-29T22:12:32.975Z,0.30
2024-02-29T22:14:59.870Z,0.40
2024-02-29T22:17:26.688Z,1.08
2024-02-29T22:19:53.566Z,0.70
2024-02-29T22:22:20.422Z,1.75
2024-02-29T22:24:47.323Z,0.40
2024-02-29T22:27:14.272Z,0.30
2024-02-29T22:29:41.145Z,0.60
2024-02-29T22:32:08.199Z,1.20
2024-02-29T22:34:35.130Z,0.40
2024-02-29T22:37:04.268Z,0.40
2024-02-29T22:39:31.185Z,0.40
2024-02-29T22:42:01.918Z,0.75
2024-02-29T22:44:30.072Z,1.38
2024-02-29T22:46:57.111Z,1.05
2024-02-29T22:49:24.553Z,0.30
2024-02-29T22:51:51.911Z,0.35
2024-02-29T22:54:19.167Z,1.05
2024-02-29T22:56:46.079Z,0.32
2024-02-29T22:59:12.946Z,0.40
2024-02-29T23:01:46.365Z,0.65
2024-02-29T23:04:13.819Z,0.60
2024-02-29T23:06:41.298Z,0.73
2024-02-29T23:09:08.307Z,1.30
2024-02-29T23:11:35.248Z,0.88
2024-02-29T23:14:02.233Z,0.60
2024-02-29T23:16:29.100Z,1.02
2024-02-29T23:18:55.949Z,0.50
2024-02-29T23:21:22.954Z,0.50
2024-02-29T23:23:49.773Z,0.80
2024-02-29T23:26:17.556Z,0.35
2024-02-29T23:28:44.375Z,0.45
2024-02-29T23:31:11.266Z,0.88
2024-02-29T23:33:38.410Z,0.50
2024-02-29T23:36:07.751Z,1.58
2024-02-29T23:38:34.684Z,0.85
2024-02-29T23:41:01.737Z,0.65
2024-02-29T23:43:28.755Z,0.40
2024-02-29T23:45:56.350Z,0.88
2024-02-29T23:48:23.236Z,0.95
2024-02-29T23:50:50.216Z,1.30
2024-02-29T23:53:17.350Z,0.63
2024-02-29T23:55:44.658Z,1.05
2024-02-29T23:58:11.483Z,0.80
